Time;durP1;ratioP1;P1;durP2;ratioP2;P2;SDS_P1;SDS_P2;PMS_P1;PMS_P2;Temp;Humidity;BMP_temperature;BMP_pressure;BME280_temperature;BME280_humidity;BME280_pressure;Samples;Min_cycle;Max_cycle;Signal;HPM_P1;HPM_P2
2023/01/03 00:04:38;;;;;;;12.80;7.30;;;;;;;6.31;100.00;99226.95;213991;1304;22475;-75
2023/01/03 00:09:51;;;;;;;13.10;8.00;;;;;;;6.29;100.00;99230.08;213958;1310;22479;-75
2023/01/03 00:14:54;;;;;;;15.20;7.50;;;;;;;6.27;100.00;99232.85;214144;1306;22482;-75
2023/01/03 00:19:55;;;;;;;15.20;8.00;;;;;;;6.27;100.00;99236.06;213900;1310;25322;-73
2023/01/03 00:24:57;;;;;;;12.70;7.00;;;;;;;6.29;100.00;99237.55;213992;1310;26057;-75
2023/01/03 00:29:59;;;;;;;13.30;7.10;;;;;;;6.30;100.00;99250.08;213900;1310;23690;-75
2023/01/03 00:35:01;;;;;;;15.20;7.40;;;;;;;6.30;100.00;99256.03;214105;1310;22526;-75
2023/01/03 00:40:06;;;;;;;14.60;8.20;;;;;;;6.32;100.00;99259.58;214090;1310;24582;-75
2023/01/03 00:45:08;;;;;;;13.80;7.40;;;;;;;6.35;100.00;99267.21;214178;1310;24460;-74
2023/01/03 00:50:11;;;;;;;13.70;7.00;;;;;;;6.36;100.00;99267.43;214080;1310;22504;-75
2023/01/03 00:55:13;;;;;;;15.10;8.60;;;;;;;6.37;100.00;99280.98;214099;1310;23394;-75
2023/01/03 01:00:15;;;;;;;12.80;7.10;;;;;;;6.41;100.00;99270.37;213911;1310;22610;-74
2023/01/03 01:05:18;;;;;;;13.50;7.20;;;;;;;6.42;100.00;99276.67;214245;1310;25542;-74
2023/01/03 01:10:19;;;;;;;12.30;6.90;;;;;;;6.44;100.00;99279.20;214227;1309;25457;-74
2023/01/03 01:15:22;;;;;;;14.30;6.80;;;;;;;6.47;100.00;99279.06;214093;1310;24337;-75
2023/01/03 01:20:23;;;;;;;12.00;6.70;;;;;;;6.50;100.00;99275.16;214093;1311;22607;-75
2023/01/03 01:25:25;;;;;;;10.90;6.00;;;;;;;6.53;100.00;99284.56;214038;1312;25403;-74
2023/01/03 01:30:27;;;;;;;11.40;6.40;;;;;;;6.54;100.00;99296.02;214167;1311;22596;-75
2023/01/03 01:35:31;;;;;;;10.70;6.60;;;;;;;6.56;100.00;99307.33;214076;1311;23813;-75
2023/01/03 01:40:32;;;;;;;12.30;6.80;;;;;;;6.59;100.00;99311.79;214090;1312;23196;-75
2023/01/03 01:45:35;;;;;;;11.30;6.20;;;;;;;6.63;100.00;99310.91;214067;1310;24325;-74
2023/01/03 01:50:48;;;;;;;12.00;6.10;;;;;;;6.67;100.00;99313.38;214267;1313;25297;-75
2023/01/03 01:55:58;;;;;;;11.40;6.30;;;;;;;6.73;100.00;99311.58;214200;1313;22459;-75
2023/01/03 02:01:03;;;;;;;10.80;5.90;;;;;;;6.78;100.00;99320.14;214015;1312;23903;-75
2023/01/03 02:06:08;;;;;;;10.00;6.10;;;;;;;6.86;100.00;99326.14;214005;1304;22466;-75
2023/01/03 02:11:44;;;;;;;10.50;5.50;;;;;;;6.93;100.00;99324.84;214199;1311;23121;-75
2023/01/03 02:17:05;;;;;;;11.90;6.30;;;;;;;7.00;100.00;99334.65;214194;1313;22467;-75
2023/01/03 02:22:35;;;;;;;8.70;5.40;;;;;;;7.06;100.00;99342.23;214164;1300;22588;-75
2023/01/03 02:27:56;;;;;;;8.50;5.20;;;;;;;7.10;100.00;99350.85;214041;1297;26532;-76
2023/01/03 02:33:06;;;;;;;9.90;5.20;;;;;;;7.14;100.00;99369.81;214230;1306;24288;-75
2023/01/03 02:38:37;;;;;;;11.10;5.70;;;;;;;7.17;100.00;99388.33;214177;1309;22464;-75
2023/01/03 02:44:24;;;;;;;7.70;5.40;;;;;;;7.21;100.00;99392.89;213923;1311;25292;-75
2023/01/03 02:49:33;;;;;;;8.80;5.00;;;;;;;7.22;100.00;99393.39;213980;1310;22508;-75
2023/01/03 02:54:59;;;;;;;10.80;5.70;;;;;;;7.23;100.00;99398.98;214082;1303;23386;-75
2023/01/03 03:00:10;;;;;;;9.80;5.20;;;;;;;7.23;100.00;99404.27;214056;1310;22587;-74
2023/01/03 03:05:21;;;;;;;7.80;4.80;;;;;;;7.26;100.00;99406.96;214239;1288;22555;-75
2023/01/03 03:15:46;;;;;;;9.10;4.70;;;;;;;7.24;99.98;99416.28;214186;1312;23743;-75
2023/01/03 03:26:18;;;;;;;;;;;;;;;7.22;99.91;99436.98;214179;1313;24045;-75
2023/01/03 03:31:34;;;;;;;9.10;4.60;;;;;;;7.20;99.95;99437.64;214189;1311;25321;-75
2023/01/03 03:37:01;;;;;;;8.80;5.60;;;;;;;7.16;99.99;99441.88;213964;1310;24218;-74
2023/01/03 03:48:00;;;;;;;9.60;4.40;;;;;;;7.14;99.95;99468.01;214067;1300;25463;-74
2023/01/03 03:53:06;;;;;;;8.20;4.60;;;;;;;7.17;99.98;99475.20;214123;1311;23773;-75
2023/01/03 03:58:22;;;;;;;6.10;4.10;;;;;;;7.20;99.84;99480.45;214017;1313;22453;-75
2023/01/03 04:03:24;;;;;;;7.90;5.00;;;;;;;7.20;99.87;99484.45;214013;1309;22975;-76
2023/01/03 04:08:27;;;;;;;8.20;4.70;;;;;;;7.19;99.82;99483.95;214055;1312;25377;-77
2023/01/03 04:13:38;;;;;;;7.20;4.90;;;;;;;7.18;99.68;99484.59;214026;1312;24778;-75
2023/01/03 04:18:40;;;;;;;8.30;5.30;;;;;;;7.16;99.60;99489.88;214017;1310;25427;-76
2023/01/03 04:23:42;;;;;;;8.40;4.50;;;;;;;7.15;99.62;99497.08;214049;1312;22466;-73
2023/01/03 04:28:43;;;;;;;8.00;4.70;;;;;;;7.11;99.54;99503.31;214153;1312;24539;-74
2023/01/03 04:33:45;;;;;;;8.50;4.90;;;;;;;7.06;99.37;99507.14;214024;1312;22594;-75
2023/01/03 04:38:47;;;;;;;7.20;4.90;;;;;;;7.00;99.44;99499.23;214145;1313;22487;-74
2023/01/03 04:44:02;;;;;;;8.90;5.10;;;;;;;6.93;99.44;99503.93;214010;1310;22483;-75
2023/01/03 04:49:08;;;;;;;7.10;4.50;;;;;;;6.87;99.59;99501.02;214088;1310;22459;-75
2023/01/03 04:54:09;;;;;;;10.10;5.30;;;;;;;6.81;99.70;99508.77;214401;1310;25434;-75
2023/01/03 04:59:11;;;;;;;9.90;5.40;;;;;;;6.78;99.84;99515.66;214067;1312;23221;-76
2023/01/03 05:04:13;;;;;;;8.50;5.30;;;;;;;6.76;99.83;99521.87;214015;1312;22479;-75
2023/01/03 05:09:14;;;;;;;10.70;6.10;;;;;;;6.75;99.90;99523.77;214160;1313;22492;-75
2023/01/03 05:14:16;;;;;;;11.20;7.40;;;;;;;6.75;99.99;99528.73;214019;1313;25460;-73
2023/01/03 05:19:18;;;;;;;12.40;5.30;;;;;;;6.76;99.98;99527.73;214278;1310;24355;-75
2023/01/03 05:29:57;;;;;;;9.60;5.50;;;;;;;6.72;99.82;99524.14;213495;1313;22546;-75
2023/01/03 05:34:59;;;;;;;9.60;5.50;;;;;;;6.69;100.00;99540.23;214039;1313;24276;-75
2023/01/03 05:40:01;;;;;;;11.20;6.30;;;;;;;6.67;99.93;99547.40;214038;1313;23010;-75
2023/01/03 05:45:03;;;;;;;10.70;6.40;;;;;;;6.67;100.00;99560.24;213863;1313;23965;-75
2023/01/03 05:50:06;;;;;;;12.00;5.80;;;;;;;6.69;100.00;99561.90;214085;1312;22523;-75
2023/01/03 05:55:09;;;;;;;10.30;5.90;;;;;;;6.73;100.00;99576.42;213815;1313;25216;-75
2023/01/03 06:00:11;;;;;;;12.20;6.40;;;;;;;6.79;100.00;99577.41;214068;1313;22466;-75
2023/01/03 06:05:13;;;;;;;12.30;6.30;;;;;;;6.85;100.00;99587.72;214034;1313;25614;-75
2023/01/03 06:10:15;;;;;;;10.60;5.60;;;;;;;6.88;100.00;99582.33;213970;1310;25084;-75
2023/01/03 06:15:19;;;;;;;12.10;6.10;;;;;;;6.86;99.96;99582.30;214152;1310;25262;-74
2023/01/03 06:20:20;;;;;;;10.80;6.10;;;;;;;6.79;100.00;99590.08;214059;1312;22500;-75
2023/01/03 06:25:23;;;;;;;12.10;5.70;;;;;;;6.74;99.98;99592.61;214128;1312;25310;-75
2023/01/03 06:30:25;;;;;;;10.10;6.70;;;;;;;6.68;99.98;99600.30;214008;1313;22618;-75
2023/01/03 06:35:27;;;;;;;12.00;7.10;;;;;;;6.64;99.96;99611.42;214087;1311;22507;-77
2023/01/03 06:40:29;;;;;;;12.20;7.60;;;;;;;6.62;99.98;99624.90;214085;1310;22465;-76
2023/01/03 06:56:27;;;;;;;13.20;6.60;;;;;;;6.62;100.00;99654.95;215061;1287;25902;-75
2023/01/03 07:01:29;;;;;;;14.20;7.20;;;;;;;6.70;100.00;99661.78;215291;1289;140245;-75
2023/01/03 07:06:31;;;;;;;9.10;5.80;;;;;;;6.78;100.00;99658.50;215060;1284;22470;-75
2023/01/03 07:11:34;;;;;;;13.30;6.90;;;;;;;6.80;100.00;99666.52;215008;1284;138883;-75
2023/01/03 07:16:38;;;;;;;13.70;6.70;;;;;;;6.79;99.97;99675.55;215340;1285;138786;-76
2023/01/03 07:21:41;;;;;;;12.60;7.10;;;;;;;6.74;100.00;99677.14;214283;1289;138651;-75
2023/01/03 07:26:42;;;;;;;13.80;8.10;;;;;;;6.69;100.00;99687.13;214408;1284;138931;-75
2023/01/03 07:31:44;;;;;;;12.90;6.80;;;;;;;6.64;100.00;99696.04;214536;1284;138911;-76
2023/01/03 07:36:46;;;;;;;18.10;7.50;;;;;;;6.59;100.00;99695.41;214366;1285;138347;-75
2023/01/03 07:47:08;;;;;;;16.10;7.90;;;;;;;6.58;100.00;99717.59;218338;1287;138111;-74
2023/01/03 07:52:09;;;;;;;17.10;8.80;;;;;;;6.62;100.00;99720.48;219731;1287;137763;-76
2023/01/03 07:57:13;;;;;;;14.30;7.80;;;;;;;6.75;100.00;99718.95;219177;1292;137408;-74
2023/01/03 08:02:15;;;;;;;10.60;6.40;;;;;;;6.98;100.00;99730.22;218512;1284;139065;-76
2023/01/03 08:07:17;;;;;;;15.30;7.00;;;;;;;7.26;100.00;99729.39;218089;1287;139449;-74
2023/01/03 08:17:39;;;;;;;13.00;7.20;;;;;;;7.75;100.00;99736.65;215799;1281;138529;-77
2023/01/03 08:22:41;;;;;;;10.10;6.70;;;;;;;8.04;99.87;99742.21;214903;1284;138859;-75
2023/01/03 08:27:43;;;;;;;13.00;7.70;;;;;;;8.20;99.44;99747.85;214201;1290;138926;-74
2023/01/03 08:32:53;;;;;;;13.00;7.70;;;;;;;8.38;99.47;99742.57;214361;1288;138898;-73
2023/01/03 08:37:58;;;;;;;14.70;8.00;;;;;;;8.56;99.19;99745.73;214875;1291;138381;-73
2023/01/03 08:43:03;;;;;;;12.60;6.70;;;;;;;8.78;99.14;99747.82;214358;1281;138761;-74
2023/01/03 08:48:07;;;;;;;8.90;5.10;;;;;;;9.01;98.86;99753.42;215205;1281;22483;-74
2023/01/03 08:53:09;;;;;;;8.40;4.60;;;;;;;9.13;98.27;99758.36;214781;1285;137991;-72
2023/01/03 08:58:11;;;;;;;6.30;4.00;;;;;;;9.22;97.58;99762.17;215837;1287;138720;-71
2023/01/03 09:03:13;;;;;;;7.90;4.70;;;;;;;9.29;97.11;99766.98;215369;1289;138872;-71
2023/01/03 09:08:17;;;;;;;5.80;3.70;;;;;;;9.36;96.62;99773.14;215401;1290;138894;-72
2023/01/03 09:13:19;;;;;;;4.90;3.10;;;;;;;9.48;96.13;99773.91;215447;1285;138321;-73
2023/01/03 09:18:20;;;;;;;5.80;3.80;;;;;;;9.56;95.76;99767.02;215351;1287;23220;-72
2023/01/03 09:23:22;;;;;;;6.40;3.70;;;;;;;9.68;95.79;99773.41;215240;1287;137890;-72
2023/01/03 09:28:24;;;;;;;5.70;3.50;;;;;;;9.79;95.38;99765.83;215169;1286;137100;-74
2023/01/03 09:33:26;;;;;;;7.80;4.30;;;;;;;9.85;94.63;99765.11;215063;1292;138660;-71
2023/01/03 09:38:28;;;;;;;6.90;4.20;;;;;;;9.86;94.78;99766.30;215039;1288;138767;-73
2023/01/03 09:43:46;;;;;;;7.80;4.60;;;;;;;9.82;94.27;99773.44;215403;1290;137310;-74
2023/01/03 09:48:50;;;;;;;7.40;4.10;;;;;;;9.85;93.89;99768.97;220005;1294;138312;-73
2023/01/03 10:05:04;;;;;;;7.90;5.00;;;;;;;10.24;92.99;99768.58;219828;1287;138257;-72
2023/01/03 10:10:37;;;;;;;5.40;3.10;;;;;;;10.40;93.08;99768.66;219921;1284;138126;-72
2023/01/03 10:16:30;;;;;;;5.30;3.20;;;;;;;10.59;92.18;99770.01;219966;1293;139105;-71
2023/01/03 10:21:49;;;;;;;4.10;3.10;;;;;;;10.71;91.48;99777.38;219622;1295;138527;-71
2023/01/03 10:27:02;;;;;;;3.50;2.70;;;;;;;10.71;91.22;99768.70;219904;1295;139068;-72
2023/01/03 10:32:31;;;;;;;4.80;3.00;;;;;;;10.54;90.80;99763.24;219713;1295;138423;-72
2023/01/03 10:37:33;;;;;;;5.10;3.50;;;;;;;10.34;90.47;99766.22;219987;1294;138490;-74
2023/01/03 10:42:38;;;;;;;5.30;3.30;;;;;;;10.18;90.14;99763.08;220209;1295;22184;-74
2023/01/03 10:47:40;;;;;;;5.50;3.70;;;;;;;10.09;90.37;99765.14;219803;1287;138656;-76
2023/01/03 10:52:42;;;;;;;6.50;3.70;;;;;;;9.99;89.97;99767.06;219921;1288;138484;-74
2023/01/03 10:57:55;;;;;;;4.70;3.00;;;;;;;9.97;89.83;99765.61;219981;1295;138367;-72
2023/01/03 11:03:08;;;;;;;7.00;3.90;;;;;;;10.02;90.24;99757.13;219896;1298;138235;-73
2023/01/03 11:08:33;;;;;;;5.30;3.80;;;;;;;10.15;90.12;99760.35;219890;1293;137500;-74
2023/01/03 11:13:39;;;;;;;6.50;3.20;;;;;;;10.26;89.52;99754.55;219927;1287;137437;-74
2023/01/03 11:18:42;;;;;;;4.70;2.80;;;;;;;10.42;89.53;99745.74;219915;1287;22500;-74
2023/01/03 11:23:53;;;;;;;5.40;3.90;;;;;;;10.64;89.48;99747.73;219741;1282;138900;-74
2023/01/03 11:29:01;;;;;;;4.80;3.40;;;;;;;10.84;89.30;99741.98;220092;1285;140527;-73
2023/01/03 11:34:20;;;;;;;4.90;3.40;;;;;;;10.95;88.90;99738.02;220026;1287;139092;-73
2023/01/03 11:39:41;;;;;;;6.20;2.50;;;;;;;11.12;88.59;99738.35;219809;1287;139067;-74
2023/01/03 11:45:09;;;;;;;3.30;2.30;;;;;;;11.22;87.44;99734.87;219866;1288;139205;-72
2023/01/03 11:50:20;;;;;;;3.30;1.70;;;;;;;11.20;86.43;99733.90;220057;1287;137528;-73
2023/01/03 11:55:39;;;;;;;2.00;1.80;;;;;;;11.01;85.31;99732.93;219843;1281;138805;-74
2023/01/03 12:01:14;;;;;;;2.90;1.70;;;;;;;10.73;84.60;99742.61;220181;1288;24095;-74
2023/01/03 12:06:37;;;;;;;4.20;1.90;;;;;;;10.48;84.71;99740.95;219980;1288;24122;-74
2023/01/03 12:11:57;;;;;;;3.40;2.20;;;;;;;10.40;84.90;99734.44;219740;1290;138640;-75
2023/01/03 12:17:06;;;;;;;3.30;2.00;;;;;;;10.43;85.00;99734.35;219840;1290;138387;-75
2023/01/03 12:22:24;;;;;;;3.10;2.10;;;;;;;10.43;84.75;99728.60;219929;1295;138599;-75
2023/01/03 12:27:37;;;;;;;5.60;2.60;;;;;;;10.32;84.60;99726.40;219753;1293;139189;-74
2023/01/03 12:32:46;;;;;;;3.10;2.30;;;;;;;10.32;84.97;99727.90;219856;1286;138615;-73
2023/01/03 12:37:49;;;;;;;3.40;2.60;;;;;;;10.31;84.96;99730.09;219818;1287;140025;-74
2023/01/03 12:43:11;;;;;;;4.10;2.50;;;;;;;10.28;84.87;99727.77;219841;1288;138498;-76
2023/01/03 12:48:27;;;;;;;4.20;2.80;;;;;;;10.23;84.74;99728.03;220010;1288;22177;-75
2023/01/03 12:53:58;;;;;;;3.60;2.50;;;;;;;10.17;84.65;99728.97;220056;1291;138493;-74
2023/01/03 12:59:34;;;;;;;4.00;2.70;;;;;;;10.11;84.83;99726.76;219797;1285;139038;-74
2023/01/03 13:04:40;;;;;;;4.30;2.70;;;;;;;10.06;84.93;99726.20;219871;1288;138844;-75
2023/01/03 13:09:52;;;;;;;6.10;3.10;;;;;;;10.05;85.12;99721.32;219942;1295;139035;-74
2023/01/03 13:15:01;;;;;;;5.50;3.00;;;;;;;10.03;84.96;99722.44;219996;1291;139222;-74
2023/01/03 13:20:25;;;;;;;5.20;3.40;;;;;;;10.00;85.04;99721.89;219898;1286;138478;-73
2023/01/03 13:25:52;;;;;;;3.10;2.50;;;;;;;9.96;85.20;99719.20;220021;1287;137502;-74
2023/01/03 13:31:19;;;;;;;4.80;2.70;;;;;;;9.92;85.24;99718.54;219869;1284;138777;-75
2023/01/03 13:36:23;;;;;;;3.10;2.20;;;;;;;9.85;85.13;99719.20;220143;1281;24322;-74
2023/01/03 13:41:36;;;;;;;2.10;1.90;;;;;;;9.79;85.07;99719.59;219939;1296;138074;-74
2023/01/03 13:46:40;;;;;;;2.40;2.00;;;;;;;9.71;84.75;99722.87;219872;1290;139814;-74
2023/01/03 13:51:42;;;;;;;5.80;2.60;;;;;;;9.62;84.49;99728.21;216484;1281;138386;-74
2023/01/03 13:56:44;;;;;;;7.40;2.60;;;;;;;9.51;84.30;99732.76;215051;1296;138657;-73
2023/01/03 14:02:01;;;;;;;6.40;2.60;;;;;;;9.37;84.12;99733.52;214746;1291;139035;-75
2023/01/03 14:07:30;;;;;;;8.80;2.30;;;;;;;9.25;84.07;99737.97;214672;1312;138675;-74
2023/01/03 14:12:47;;;;;;;4.20;2.00;;;;;;;9.07;83.86;99741.20;214992;1304;22689;-74
2023/01/03 14:17:53;;;;;;;4.40;2.10;;;;;;;8.92;83.58;99742.03;214890;1281;138206;-75
2023/01/03 14:23:01;;;;;;;7.20;2.50;;;;;;;8.81;83.64;99749.20;214993;1285;138734;-74
2023/01/03 14:28:26;;;;;;;3.10;2.10;;;;;;;8.73;83.67;99756.59;215019;1288;138701;-76
2023/01/03 14:33:41;;;;;;;3.50;1.70;;;;;;;8.64;83.74;99765.04;215190;1281;138731;-74
2023/01/03 14:39:01;;;;;;;2.90;1.90;;;;;;;8.57;83.80;99758.02;215184;1280;138242;-72
2023/01/03 14:44:05;;;;;;;2.10;1.50;;;;;;;8.49;83.62;99763.98;215104;1287;138540;-72
2023/01/03 14:49:20;;;;;;;2.40;1.80;;;;;;;8.43;83.66;99765.59;215098;1285;139183;-73
2023/01/03 14:54:25;;;;;;;4.60;2.10;;;;;;;8.39;83.63;99774.89;215460;1278;22501;-72
2023/01/03 14:59:27;;;;;;;3.30;2.10;;;;;;;8.34;83.48;99777.81;215059;1281;138482;-73
2023/01/03 15:04:29;;;;;;;3.30;2.00;;;;;;;8.30;83.43;99781.50;215224;1290;23724;-74
2023/01/03 15:09:33;;;;;;;4.90;2.50;;;;;;;8.23;83.38;99788.89;215000;1283;23856;-73
2023/01/03 15:14:37;;;;;;;6.20;2.40;;;;;;;8.15;83.43;99796.95;215111;1285;22570;-73
2023/01/03 15:19:48;;;;;;;5.30;2.70;;;;;;;8.07;83.44;99799.14;215025;1311;22489;-72
2023/01/03 15:25:04;;;;;;;5.70;2.90;;;;;;;8.00;83.67;99807.33;220116;1306;24393;-72
2023/01/03 15:30:12;;;;;;;3.40;2.50;;;;;;;7.92;83.53;99809.39;220051;1310;24140;-73
2023/01/03 15:35:39;;;;;;;5.60;2.50;;;;;;;7.83;83.69;99809.97;220100;1310;24159;-73
2023/01/03 15:40:42;;;;;;;5.90;2.40;;;;;;;7.72;83.55;99813.86;220033;1310;24179;-73
2023/01/03 15:45:51;;;;;;;3.00;2.40;;;;;;;7.60;83.70;99819.85;219989;1309;24164;-72
2023/01/03 15:50:55;;;;;;;3.60;2.50;;;;;;;7.48;84.01;99818.81;219962;1304;22204;-73
2023/01/03 15:56:09;;;;;;;5.10;3.20;;;;;;;7.37;84.05;99825.14;220056;1310;24135;-73
2023/01/03 16:01:12;;;;;;;4.40;2.70;;;;;;;7.26;84.31;99829.77;220053;1303;24752;-73
2023/01/03 16:06:15;;;;;;;5.30;3.20;;;;;;;7.19;84.43;99834.11;220070;1310;24170;-73
2023/01/03 16:11:24;;;;;;;5.50;3.60;;;;;;;7.16;84.57;99833.84;220052;1304;24277;-73
2023/01/03 16:16:39;;;;;;;5.30;3.40;;;;;;;7.16;84.89;99839.02;220067;1310;25367;-76
2023/01/03 16:21:41;;;;;;;8.00;4.40;;;;;;;7.17;85.00;99845.75;220196;1310;22175;-74
2023/01/03 16:27:13;;;;;;;10.70;5.00;;;;;;;7.19;85.13;99854.52;220096;1310;25350;-74
2023/01/03 16:32:21;;;;;;;10.40;5.70;;;;;;;7.21;85.32;99857.44;220113;1294;24671;-73
2023/01/03 16:37:22;;;;;;;8.70;5.60;;;;;;;7.23;85.13;99853.38;220177;1310;25405;-72
2023/01/03 16:42:27;;;;;;;9.10;5.70;;;;;;;7.26;85.34;99846.38;220058;1308;24730;-73
2023/01/03 16:47:31;;;;;;;9.20;5.30;;;;;;;7.28;85.27;99845.92;220137;1309;24152;-73
2023/01/03 16:52:37;;;;;;;11.90;6.10;;;;;;;7.22;85.35;99849.04;220169;1310;24124;-75
2023/01/03 16:57:39;;;;;;;12.40;7.10;;;;;;;7.14;85.32;99854.75;220094;1310;24224;-73
2023/01/03 17:02:40;;;;;;;11.30;6.40;;;;;;;7.06;85.53;99853.34;220068;1309;25375;-73
2023/01/03 17:07:45;;;;;;;11.00;6.20;;;;;;;7.01;85.55;99857.45;220163;1310;23154;-73
2023/01/03 17:12:47;;;;;;;9.10;5.40;;;;;;;6.99;85.70;99858.80;220024;1305;22374;-73
2023/01/03 17:17:49;;;;;;;9.40;6.20;;;;;;;6.97;85.66;99862.54;219916;1310;24083;-73
2023/01/03 17:22:56;;;;;;;13.50;6.00;;;;;;;6.94;85.81;99857.53;220182;1310;24220;-73
2023/01/03 17:27:58;;;;;;;14.80;7.50;;;;;;;6.89;85.81;99860.74;219990;1310;24950;-73
2023/01/03 17:33:00;;;;;;;17.30;8.70;;;;;;;6.90;85.84;99866.30;220169;1305;22127;-72
2023/01/03 17:38:02;;;;;;;13.20;7.90;;;;;;;6.93;85.99;99871.84;220183;1310;24182;-74
2023/01/03 17:43:24;;;;;;;12.70;6.90;;;;;;;6.94;85.95;99874.28;220186;1295;25401;-72
2023/01/03 17:53:49;;;;;;;10.90;6.60;;;;;;;6.94;85.86;99878.84;220129;1304;22181;-73
2023/01/03 17:58:51;;;;;;;18.30;9.80;;;;;;;6.87;85.69;99879.89;219966;1310;22242;-74
2023/01/03 18:03:57;;;;;;;21.80;10.50;;;;;;;6.70;85.68;99884.27;219939;1312;24112;-74
2023/01/03 18:09:02;;;;;;;19.20;9.80;;;;;;;6.48;85.65;99886.62;219904;1304;24141;-74
2023/01/03 18:14:04;;;;;;;21.50;10.20;;;;;;;6.37;86.21;99892.65;220135;1310;24169;-73
2023/01/03 18:19:06;;;;;;;20.90;9.40;;;;;;;6.31;86.33;99897.38;220134;1304;24224;-73
2023/01/03 18:24:18;;;;;;;17.10;8.80;;;;;;;6.31;86.72;99899.71;220174;1310;22904;-74
2023/01/03 18:29:19;;;;;;;17.80;9.80;;;;;;;6.35;86.75;99901.13;220176;1303;24119;-73
2023/01/03 18:34:21;;;;;;;17.90;9.60;;;;;;;6.39;86.86;99902.52;220119;1310;24197;-72
2023/01/03 18:39:28;;;;;;;15.00;8.10;;;;;;;6.38;86.85;99905.39;220123;1308;24158;-73
2023/01/03 18:44:30;;;;;;;21.00;11.70;;;;;;;6.35;86.64;99912.30;220062;1310;24159;-73
2023/01/03 18:49:32;;;;;;;30.90;15.70;;;;;;;6.32;86.85;99916.52;220055;1295;24147;-73
2023/01/03 18:54:37;;;;;;;32.90;16.40;;;;;;;6.34;86.84;99915.27;220045;1310;22875;-73
2023/01/03 18:59:39;;;;;;;28.30;13.90;;;;;;;6.37;87.10;99922.09;219906;1288;24859;-73
2023/01/03 19:04:41;;;;;;;28.00;14.30;;;;;;;6.37;86.97;99922.94;220115;1303;24833;-73
2023/01/03 19:09:51;;;;;;;;;;;;;;;6.34;86.90;99929.00;220031;1295;24321;-77
2023/01/03 19:14:53;;;;;;;30.90;13.60;;;;;;;6.31;86.89;99927.91;220151;1311;24149;-72
2023/01/03 19:19:54;;;;;;;25.70;13.70;;;;;;;6.28;86.88;99923.27;220078;1304;24220;-72
2023/01/03 19:25:01;;;;;;;29.10;14.20;;;;;;;6.24;87.15;99924.34;220070;1311;22143;-74
2023/01/03 19:30:06;;;;;;;22.90;13.50;;;;;;;6.21;87.09;99926.08;219905;1305;22113;-74
2023/01/03 19:35:17;;;;;;;26.90;13.40;;;;;;;6.16;87.27;99929.49;220006;1312;24081;-79
2023/01/03 19:40:21;;;;;;;25.30;13.80;;;;;;;6.11;87.36;99934.55;219871;1311;24143;-73
2023/01/03 19:45:27;;;;;;;32.30;15.80;;;;;;;6.06;87.30;99930.27;219911;1313;22151;-73
2023/01/03 19:50:32;;;;;;;28.90;15.00;;;;;;;6.01;87.41;99922.16;220048;1300;24129;-74
2023/01/03 19:55:39;;;;;;;30.40;15.90;;;;;;;5.98;87.27;99921.66;220072;1312;24186;-74
2023/01/03 20:00:41;;;;;;;26.50;13.70;;;;;;;5.93;87.67;99921.38;220107;1312;25109;-74
2023/01/03 20:05:42;;;;;;;24.10;13.10;;;;;;;5.88;87.67;99925.77;219857;1313;100648;-73
2023/01/03 20:10:44;;;;;;;25.50;13.70;;;;;;;5.84;87.82;99933.17;219869;1295;24176;-74
2023/01/03 20:15:47;;;;;;;30.80;14.30;;;;;;;5.79;87.83;99944.64;220148;1311;24166;-73
2023/01/03 20:20:51;;;;;;;32.80;15.00;;;;;;;5.72;87.86;99944.30;220077;1312;24163;-72
2023/01/03 20:25:53;;;;;;;24.90;13.90;;;;;;;5.63;87.98;99945.36;220100;1312;24150;-73
2023/01/03 20:30:57;;;;;;;31.20;14.70;;;;;;;5.57;88.25;99945.63;220089;1294;24196;-73
2023/01/03 20:36:05;;;;;;;29.90;14.90;;;;;;;5.53;88.47;99946.21;220092;1312;24089;-73
2023/01/03 20:41:34;;;;;;;28.50;14.60;;;;;;;5.49;88.50;99949.24;219964;1295;24124;-73
2023/01/03 20:46:38;;;;;;;30.60;16.00;;;;;;;5.43;88.40;99947.23;220018;1298;24569;-73
2023/01/03 20:51:40;;;;;;;39.90;19.70;;;;;;;5.39;88.69;99949.19;220110;1311;24157;-74
2023/01/03 20:56:42;;;;;;;37.40;20.00;;;;;;;5.33;88.75;99943.45;220141;1313;24707;-73
2023/01/03 21:01:47;;;;;;;43.40;21.50;;;;;;;5.29;88.49;99942.77;220166;1306;24933;-73
2023/01/03 21:06:51;;;;;;;38.70;20.50;;;;;;;5.26;88.92;99937.70;220025;1313;24133;-73
2023/01/03 21:11:53;;;;;;;45.70;20.40;;;;;;;5.25;88.91;99938.48;220108;1310;24107;-73
2023/01/03 21:16:55;;;;;;;48.90;23.50;;;;;;;5.25;88.97;99945.48;220123;1311;24132;-73
2023/01/03 21:21:58;;;;;;;62.60;30.20;;;;;;;5.21;89.02;99945.70;220141;1311;24230;-72
2023/01/03 21:27:00;;;;;;;61.70;30.40;;;;;;;5.13;88.98;99941.05;220142;1313;24109;-72
2023/01/03 21:32:02;;;;;;;63.80;28.40;;;;;;;5.03;89.18;99941.16;220094;1308;24900;-74
2023/01/03 21:37:04;;;;;;;42.50;22.70;;;;;;;4.91;89.17;99937.44;220195;1303;22787;-73
2023/01/03 21:47:26;;;;;;;;;;;;;;;4.50;89.44;99930.61;220145;1311;23026;-73
2023/01/03 21:52:28;;;;;;;41.80;20.90;;;;;;;4.36;89.79;99933.84;220126;1313;22222;-74
2023/01/03 21:57:31;;;;;;;58.20;27.20;;;;;;;4.21;89.88;99944.49;220033;1311;23259;-73
2023/01/03 22:08:02;;;;;;;47.50;22.10;;;;;;;3.89;90.22;99948.51;219999;1309;22211;-73
2023/01/03 22:13:09;;;;;;;71.70;30.50;;;;;;;3.68;90.36;99948.83;219914;1312;23087;-73
2023/01/03 22:18:12;;;;;;;62.80;27.10;;;;;;;3.48;90.57;99955.05;220077;1312;24419;-72
2023/01/03 22:23:15;;;;;;;63.80;28.20;;;;;;;3.28;90.57;99954.09;220017;1312;22237;-72
2023/01/03 22:28:17;;;;;;;60.80;29.20;;;;;;;3.09;91.11;99949.33;220066;1311;22159;-72
2023/01/03 22:33:19;;;;;;;58.90;25.90;;;;;;;3.00;91.40;99941.35;220195;1311;24833;-72
2023/01/03 22:38:20;;;;;;;56.50;25.90;;;;;;;2.94;91.88;99935.98;219931;1310;22123;-73
2023/01/03 22:43:22;;;;;;;54.10;24.50;;;;;;;2.85;92.01;99935.41;220144;1312;24140;-72
2023/01/03 22:48:33;;;;;;;57.90;27.50;;;;;;;2.73;91.94;99941.42;220045;1290;22169;-72
2023/01/03 22:53:37;;;;;;;58.30;26.80;;;;;;;2.65;92.43;99944.63;220022;1312;22182;-72
2023/01/03 22:58:39;;;;;;;64.00;28.70;;;;;;;2.56;92.42;99939.75;219942;1307;22158;-72
2023/01/03 23:03:42;;;;;;;66.90;29.10;;;;;;;2.48;92.63;99947.05;220049;1312;23407;-73
2023/01/03 23:08:48;;;;;;;70.30;29.40;;;;;;;2.41;92.59;99948.86;220049;1312;24220;-73
2023/01/03 23:13:50;;;;;;;66.00;28.30;;;;;;;2.34;92.75;99958.14;220028;1307;22155;-73
2023/01/03 23:18:52;;;;;;;70.80;30.00;;;;;;;2.27;93.00;99947.94;220108;1311;22702;-72
2023/01/03 23:23:53;;;;;;;69.20;30.80;;;;;;;2.20;93.06;99950.38;220206;1293;22168;-74
2023/01/03 23:28:57;;;;;;;70.50;28.70;;;;;;;2.16;93.20;99952.79;220083;1313;22167;-76
2023/01/03 23:33:59;;;;;;;66.80;30.90;;;;;;;2.09;93.20;99954.49;220026;1294;24130;-73
2023/01/03 23:39:02;;;;;;;68.60;30.10;;;;;;;2.04;93.46;99950.06;220085;1312;24839;-72
2023/01/03 23:44:03;;;;;;;63.40;31.20;;;;;;;2.01;93.60;99954.05;220125;1311;24856;-72
2023/01/03 23:49:05;;;;;;;71.00;30.80;;;;;;;1.97;93.65;99957.50;220069;1312;22181;-73
2023/01/03 23:54:08;;;;;;;63.30;27.90;;;;;;;2.00;94.00;99957.30;219941;1307;24339;-73
2023/01/03 23:59:10;;;;;;;63.20;28.50;;;;;;;2.06;94.23;99946.97;220180;1310;24229;-73
